sensor_id;sensor_type;location;lat;lon;timestamp;P1;durP1;ratioP1;P2;durP2;ratioP2
9948;SDS011;5013;51.840;8.276;2023-09-18T00:00:42;8.17;;;7.40;;
9948;SDS011;5013;51.840;8.276;2023-09-18T00:03:09;7.63;;;6.80;;
9948;SDS011;5013;51.840;8.276;2023-09-18T00:05:34;8.53;;;7.23;;
9948;SDS011;5013;51.840;8.276;2023-09-18T00:08:00;8.50;;;7.70;;
9948;SDS011;5013;51.840;8.276;2023-09-18T00:10:29;9.47;;;8.50;;
9948;SDS011;5013;51.840;8.276;2023-09-18T00:12:55;14.23;;;8.83;;
9948;SDS011;5013;51.840;8.276;2023-09-18T00:15:22;11.87;;;9.60;;
9948;SDS011;5013;51.840;8.276;2023-09-18T00:17:48;9.23;;;8.33;;
9948;SDS011;5013;51.840;8.276;2023-09-18T00:20:14;8.77;;;7.97;;
9948;SDS011;5013;51.840;8.276;2023-09-18T00:22:42;9.27;;;8.47;;
9948;SDS011;5013;51.840;8.276;2023-09-18T00:25:08;11.33;;;8.67;;
9948;SDS011;5013;51.840;8.276;2023-09-18T00:27:33;9.23;;;8.33;;
9948;SDS011;5013;51.840;8.276;2023-09-18T00:30:01;9.17;;;8.43;;
9948;SDS011;5013;51.840;8.276;2023-09-18T00:32:28;9.60;;;8.73;;
9948;SDS011;5013;51.840;8.276;2023-09-18T00:34:54;9.30;;;8.50;;
9948;SDS011;5013;51.840;8.276;2023-09-18T00:37:21;10.40;;;9.40;;
9948;SDS011;5013;51.840;8.276;2023-09-18T00:39:46;11.83;;;8.70;;
9948;SDS011;5013;51.840;8.276;2023-09-18T00:42:12;8.97;;;8.17;;
9948;SDS011;5013;51.840;8.276;2023-09-18T00:44:39;12.80;;;8.13;;
9948;SDS011;5013;51.840;8.276;2023-09-18T00:47:06;8.87;;;7.97;;
9948;SDS011;5013;51.840;8.276;2023-09-18T00:49:33;8.90;;;8.20;;
9948;SDS011;5013;51.840;8.276;2023-09-18T00:52:01;15.77;;;8.33;;
9948;SDS011;5013;51.840;8.276;2023-09-18T00:54:28;8.13;;;7.30;;
9948;SDS011;5013;51.840;8.276;2023-09-18T00:56:54;9.83;;;8.93;;
9948;SDS011;5013;51.840;8.276;2023-09-18T00:59:20;10.37;;;8.37;;
9948;SDS011;5013;51.840;8.276;2023-09-18T01:01:46;10.50;;;8.73;;
9948;SDS011;5013;51.840;8.276;2023-09-18T01:04:16;10.70;;;9.07;;
9948;SDS011;5013;51.840;8.276;2023-09-18T01:06:42;15.37;;;9.50;;
9948;SDS011;5013;51.840;8.276;2023-09-18T01:09:07;12.03;;;9.37;;
9948;SDS011;5013;51.840;8.276;2023-09-18T01:14:17;9.77;;;8.97;;
9948;SDS011;5013;51.840;8.276;2023-09-18T01:16:57;12.10;;;9.27;;
9948;SDS011;5013;51.840;8.276;2023-09-18T01:19:42;11.73;;;9.10;;
9948;SDS011;5013;51.840;8.276;2023-09-18T01:22:10;11.03;;;9.93;;
9948;SDS011;5013;51.840;8.276;2023-09-18T01:24:38;11.93;;;10.30;;
9948;SDS011;5013;51.840;8.276;2023-09-18T01:27:06;9.47;;;8.67;;
9948;SDS011;5013;51.840;8.276;2023-09-18T01:29:39;8.37;;;7.77;;
9948;SDS011;5013;51.840;8.276;2023-09-18T01:32:05;9.50;;;8.63;;
9948;SDS011;5013;51.840;8.276;2023-09-18T01:34:36;8.33;;;7.50;;
9948;SDS011;5013;51.840;8.276;2023-09-18T01:37:07;8.33;;;7.50;;
9948;SDS011;5013;51.840;8.276;2023-09-18T01:39:37;16.70;;;9.53;;
9948;SDS011;5013;51.840;8.276;2023-09-18T01:42:04;9.10;;;8.30;;
9948;SDS011;5013;51.840;8.276;2023-09-18T01:44:34;10.20;;;9.17;;
9948;SDS011;5013;51.840;8.276;2023-09-18T01:47:04;9.53;;;8.63;;
9948;SDS011;5013;51.840;8.276;2023-09-18T01:49:34;9.73;;;8.73;;
9948;SDS011;5013;51.840;8.276;2023-09-18T01:52:02;12.10;;;9.17;;
9948;SDS011;5013;51.840;8.276;2023-09-18T01:54:29;12.80;;;9.07;;
9948;SDS011;5013;51.840;8.276;2023-09-18T01:56:55;9.73;;;8.73;;
9948;SDS011;5013;51.840;8.276;2023-09-18T01:59:21;8.40;;;7.73;;
9948;SDS011;5013;51.840;8.276;2023-09-18T02:01:48;10.07;;;8.47;;
9948;SDS011;5013;51.840;8.276;2023-09-18T02:04:14;9.43;;;8.40;;
9948;SDS011;5013;51.840;8.276;2023-09-18T02:06:40;9.47;;;8.30;;
9948;SDS011;5013;51.840;8.276;2023-09-18T02:09:06;9.53;;;8.57;;
9948;SDS011;5013;51.840;8.276;2023-09-18T02:11:34;8.47;;;7.53;;
9948;SDS011;5013;51.840;8.276;2023-09-18T02:14:02;7.40;;;6.70;;
9948;SDS011;5013;51.840;8.276;2023-09-18T02:16:29;11.03;;;8.43;;
9948;SDS011;5013;51.840;8.276;2023-09-18T02:18:54;11.00;;;8.13;;
9948;SDS011;5013;51.840;8.276;2023-09-18T02:21:23;8.77;;;7.90;;
9948;SDS011;5013;51.840;8.276;2023-09-18T02:23:52;11.90;;;8.90;;
9948;SDS011;5013;51.840;8.276;2023-09-18T02:26:18;14.10;;;9.73;;
9948;SDS011;5013;51.840;8.276;2023-09-18T02:28:44;12.63;;;8.77;;
9948;SDS011;5013;51.840;8.276;2023-09-18T02:31:10;13.80;;;8.93;;
9948;SDS011;5013;51.840;8.276;2023-09-18T02:33:37;9.27;;;8.33;;
9948;SDS011;5013;51.840;8.276;2023-09-18T02:36:03;10.70;;;7.70;;
9948;SDS011;5013;51.840;8.276;2023-09-18T02:38:28;10.33;;;7.63;;
9948;SDS011;5013;51.840;8.276;2023-09-18T02:40:57;8.17;;;7.57;;
9948;SDS011;5013;51.840;8.276;2023-09-18T02:43:23;8.73;;;7.80;;
9948;SDS011;5013;51.840;8.276;2023-09-18T02:45:49;12.73;;;8.07;;
9948;SDS011;5013;51.840;8.276;2023-09-18T02:48:15;12.40;;;9.53;;
9948;SDS011;5013;51.840;8.276;2023-09-18T02:50:41;8.90;;;7.97;;
9948;SDS011;5013;51.840;8.276;2023-09-18T02:53:07;8.00;;;7.30;;
9948;SDS011;5013;51.840;8.276;2023-09-18T02:55:41;7.43;;;6.87;;
9948;SDS011;5013;51.840;8.276;2023-09-18T02:58:06;9.40;;;6.90;;
9948;SDS011;5013;51.840;8.276;2023-09-18T03:00:34;9.50;;;7.30;;
9948;SDS011;5013;51.840;8.276;2023-09-18T03:02:59;9.17;;;7.30;;
9948;SDS011;5013;51.840;8.276;2023-09-18T03:05:25;10.53;;;7.23;;
9948;SDS011;5013;51.840;8.276;2023-09-18T03:07:51;10.23;;;6.50;;
9948;SDS011;5013;51.840;8.276;2023-09-18T03:10:17;7.87;;;6.80;;
9948;SDS011;5013;51.840;8.276;2023-09-18T03:12:43;10.40;;;7.27;;
9948;SDS011;5013;51.840;8.276;2023-09-18T03:15:12;7.50;;;6.70;;
9948;SDS011;5013;51.840;8.276;2023-09-18T03:17:38;9.67;;;6.67;;
9948;SDS011;5013;51.840;8.276;2023-09-18T03:20:06;8.77;;;6.00;;
9948;SDS011;5013;51.840;8.276;2023-09-18T03:22:32;10.50;;;7.47;;
9948;SDS011;5013;51.840;8.276;2023-09-18T03:24:57;12.97;;;6.80;;
9948;SDS011;5013;51.840;8.276;2023-09-18T03:27:23;7.13;;;6.40;;
9948;SDS011;5013;51.840;8.276;2023-09-18T03:29:53;6.90;;;6.27;;
9948;SDS011;5013;51.840;8.276;2023-09-18T03:32:22;7.93;;;6.47;;
9948;SDS011;5013;51.840;8.276;2023-09-18T03:34:50;11.80;;;6.47;;
9948;SDS011;5013;51.840;8.276;2023-09-18T03:37:16;8.20;;;7.00;;
9948;SDS011;5013;51.840;8.276;2023-09-18T03:39:42;7.40;;;5.73;;
9948;SDS011;5013;51.840;8.276;2023-09-18T03:42:07;8.60;;;6.40;;
9948;SDS011;5013;51.840;8.276;2023-09-18T03:44:33;8.60;;;6.23;;
9948;SDS011;5013;51.840;8.276;2023-09-18T03:46:58;14.50;;;7.27;;
9948;SDS011;5013;51.840;8.276;2023-09-18T03:49:24;10.57;;;7.07;;
9948;SDS011;5013;51.840;8.276;2023-09-18T03:51:49;10.30;;;6.50;;
9948;SDS011;5013;51.840;8.276;2023-09-18T03:54:15;12.23;;;7.20;;
9948;SDS011;5013;51.840;8.276;2023-09-18T03:56:40;7.63;;;6.93;;
9948;SDS011;5013;51.840;8.276;2023-09-18T03:59:06;10.60;;;6.70;;
9948;SDS011;5013;51.840;8.276;2023-09-18T04:01:31;8.87;;;6.27;;
9948;SDS011;5013;51.840;8.276;2023-09-18T04:03:57;6.90;;;6.23;;
9948;SDS011;5013;51.840;8.276;2023-09-18T04:06:23;10.83;;;6.63;;
9948;SDS011;5013;51.840;8.276;2023-09-18T04:08:51;7.67;;;5.67;;
9948;SDS011;5013;51.840;8.276;2023-09-18T04:11:17;10.57;;;7.33;;
9948;SDS011;5013;51.840;8.276;2023-09-18T04:13:44;9.90;;;6.50;;
9948;SDS011;5013;51.840;8.276;2023-09-18T04:16:10;8.37;;;6.27;;
9948;SDS011;5013;51.840;8.276;2023-09-18T04:18:41;5.77;;;5.23;;
9948;SDS011;5013;51.840;8.276;2023-09-18T04:21:08;6.27;;;5.57;;
9948;SDS011;5013;51.840;8.276;2023-09-18T04:23:35;9.50;;;6.07;;
9948;SDS011;5013;51.840;8.276;2023-09-18T04:26:01;6.07;;;5.47;;
9948;SDS011;5013;51.840;8.276;2023-09-18T04:28:27;9.87;;;6.03;;
9948;SDS011;5013;51.840;8.276;2023-09-18T04:30:53;6.57;;;5.43;;
9948;SDS011;5013;51.840;8.276;2023-09-18T04:33:18;15.97;;;5.77;;
9948;SDS011;5013;51.840;8.276;2023-09-18T04:35:46;6.73;;;5.87;;
9948;SDS011;5013;51.840;8.276;2023-09-18T04:38:12;9.17;;;7.27;;
9948;SDS011;5013;51.840;8.276;2023-09-18T04:40:40;8.27;;;6.83;;
9948;SDS011;5013;51.840;8.276;2023-09-18T04:43:06;8.03;;;5.63;;
9948;SDS011;5013;51.840;8.276;2023-09-18T04:45:32;7.17;;;6.23;;
9948;SDS011;5013;51.840;8.276;2023-09-18T04:47:58;7.73;;;5.70;;
9948;SDS011;5013;51.840;8.276;2023-09-18T04:50:23;6.40;;;5.80;;
9948;SDS011;5013;51.840;8.276;2023-09-18T04:52:51;7.93;;;6.67;;
9948;SDS011;5013;51.840;8.276;2023-09-18T04:55:19;8.57;;;5.93;;
9948;SDS011;5013;51.840;8.276;2023-09-18T04:57:45;8.30;;;7.10;;
9948;SDS011;5013;51.840;8.276;2023-09-18T05:00:10;6.80;;;5.97;;
9948;SDS011;5013;51.840;8.276;2023-09-18T05:02:38;9.97;;;6.27;;
9948;SDS011;5013;51.840;8.276;2023-09-18T05:05:05;6.80;;;6.20;;
9948;SDS011;5013;51.840;8.276;2023-09-18T05:07:33;7.23;;;5.90;;
9948;SDS011;5013;51.840;8.276;2023-09-18T05:09:59;6.67;;;6.13;;
9948;SDS011;5013;51.840;8.276;2023-09-18T05:12:25;8.97;;;6.47;;
9948;SDS011;5013;51.840;8.276;2023-09-18T05:14:50;7.93;;;6.60;;
9948;SDS011;5013;51.840;8.276;2023-09-18T05:17:17;6.20;;;5.80;;
9948;SDS011;5013;51.840;8.276;2023-09-18T05:19:43;8.27;;;6.53;;
9948;SDS011;5013;51.840;8.276;2023-09-18T05:22:09;6.50;;;5.80;;
9948;SDS011;5013;51.840;8.276;2023-09-18T05:24:35;8.27;;;6.20;;
9948;SDS011;5013;51.840;8.276;2023-09-18T05:27:04;5.93;;;5.33;;
9948;SDS011;5013;51.840;8.276;2023-09-18T05:29:33;7.17;;;6.33;;
9948;SDS011;5013;51.840;8.276;2023-09-18T05:32:01;8.80;;;5.73;;
9948;SDS011;5013;51.840;8.276;2023-09-18T05:34:27;10.20;;;6.20;;
9948;SDS011;5013;51.840;8.276;2023-09-18T05:36:52;10.17;;;6.13;;
9948;SDS011;5013;51.840;8.276;2023-09-18T05:39:18;7.37;;;5.77;;
9948;SDS011;5013;51.840;8.276;2023-09-18T05:41:44;6.50;;;5.80;;
9948;SDS011;5013;51.840;8.276;2023-09-18T05:44:09;7.53;;;6.27;;
9948;SDS011;5013;51.840;8.276;2023-09-18T05:46:35;9.70;;;6.53;;
9948;SDS011;5013;51.840;8.276;2023-09-18T05:49:01;7.87;;;6.93;;
9948;SDS011;5013;51.840;8.276;2023-09-18T05:51:27;6.77;;;6.17;;
9948;SDS011;5013;51.840;8.276;2023-09-18T05:53:52;8.60;;;5.93;;
9948;SDS011;5013;51.840;8.276;2023-09-18T05:56:18;8.80;;;6.40;;
9948;SDS011;5013;51.840;8.276;2023-09-18T05:58:44;6.10;;;5.60;;
9948;SDS011;5013;51.840;8.276;2023-09-18T06:01:09;9.23;;;6.67;;
9948;SDS011;5013;51.840;8.276;2023-09-18T06:03:35;7.90;;;6.00;;
9948;SDS011;5013;51.840;8.276;2023-09-18T06:06:01;6.20;;;5.73;;
9948;SDS011;5013;51.840;8.276;2023-09-18T06:08:28;10.03;;;7.43;;
9948;SDS011;5013;51.840;8.276;2023-09-18T06:10:55;10.00;;;5.37;;
9948;SDS011;5013;51.840;8.276;2023-09-18T06:13:21;6.83;;;5.70;;
9948;SDS011;5013;51.840;8.276;2023-09-18T06:15:47;6.07;;;5.47;;
9948;SDS011;5013;51.840;8.276;2023-09-18T06:18:12;7.03;;;6.27;;
9948;SDS011;5013;51.840;8.276;2023-09-18T06:20:38;9.40;;;5.93;;
9948;SDS011;5013;51.840;8.276;2023-09-18T06:23:06;6.27;;;5.67;;
9948;SDS011;5013;51.840;8.276;2023-09-18T06:25:31;9.27;;;5.60;;
9948;SDS011;5013;51.840;8.276;2023-09-18T06:27:57;6.90;;;6.20;;
9948;SDS011;5013;51.840;8.276;2023-09-18T06:30:23;10.13;;;5.50;;
9948;SDS011;5013;51.840;8.276;2023-09-18T06:32:49;6.67;;;5.27;;
9948;SDS011;5013;51.840;8.276;2023-09-18T06:35:14;6.07;;;5.30;;
9948;SDS011;5013;51.840;8.276;2023-09-18T06:37:40;6.20;;;5.60;;
9948;SDS011;5013;51.840;8.276;2023-09-18T06:40:05;5.43;;;4.97;;
9948;SDS011;5013;51.840;8.276;2023-09-18T06:42:32;7.53;;;5.57;;
9948;SDS011;5013;51.840;8.276;2023-09-18T06:44:58;5.67;;;5.13;;
9948;SDS011;5013;51.840;8.276;2023-09-18T06:47:23;12.80;;;5.53;;
9948;SDS011;5013;51.840;8.276;2023-09-18T06:49:49;6.47;;;4.50;;
9948;SDS011;5013;51.840;8.276;2023-09-18T06:52:16;12.63;;;4.00;;
9948;SDS011;5013;51.840;8.276;2023-09-18T06:54:41;7.23;;;3.43;;
9948;SDS011;5013;51.840;8.276;2023-09-18T06:57:09;8.40;;;3.30;;
9948;SDS011;5013;51.840;8.276;2023-09-18T06:59:35;7.07;;;3.20;;
9948;SDS011;5013;51.840;8.276;2023-09-18T07:02:01;9.10;;;2.73;;
9948;SDS011;5013;51.840;8.276;2023-09-18T07:04:26;8.43;;;3.00;;
9948;SDS011;5013;51.840;8.276;2023-09-18T07:06:52;10.63;;;3.03;;
9948;SDS011;5013;51.840;8.276;2023-09-18T07:09:21;4.57;;;2.80;;
9948;SDS011;5013;51.840;8.276;2023-09-18T07:11:48;9.53;;;2.83;;
9948;SDS011;5013;51.840;8.276;2023-09-18T07:14:14;5.77;;;2.87;;
9948;SDS011;5013;51.840;8.276;2023-09-18T07:16:39;7.68;;;2.70;;
9948;SDS011;5013;51.840;8.276;2023-09-18T07:19:05;7.40;;;3.23;;
9948;SDS011;5013;51.840;8.276;2023-09-18T07:21:31;8.13;;;2.70;;
9948;SDS011;5013;51.840;8.276;2023-09-18T07:23:58;6.38;;;2.70;;
9948;SDS011;5013;51.840;8.276;2023-09-18T07:26:24;5.70;;;2.93;;
9948;SDS011;5013;51.840;8.276;2023-09-18T07:28:49;9.67;;;3.00;;
9948;SDS011;5013;51.840;8.276;2023-09-18T07:31:15;7.90;;;3.10;;
9948;SDS011;5013;51.840;8.276;2023-09-18T07:33:40;8.37;;;2.40;;
9948;SDS011;5013;51.840;8.276;2023-09-18T07:36:06;9.30;;;2.80;;
9948;SDS011;5013;51.840;8.276;2023-09-18T07:38:32;7.17;;;2.90;;
9948;SDS011;5013;51.840;8.276;2023-09-18T07:40:58;8.37;;;2.63;;
9948;SDS011;5013;51.840;8.276;2023-09-18T07:43:24;8.63;;;2.97;;
9948;SDS011;5013;51.840;8.276;2023-09-18T07:45:50;8.75;;;2.75;;
9948;SDS011;5013;51.840;8.276;2023-09-18T07:48:15;6.95;;;2.75;;
9948;SDS011;5013;51.840;8.276;2023-09-18T07:50:44;6.90;;;2.67;;
9948;SDS011;5013;51.840;8.276;2023-09-18T07:53:10;9.07;;;2.83;;
9948;SDS011;5013;51.840;8.276;2023-09-18T07:55:36;8.85;;;2.72;;
9948;SDS011;5013;51.840;8.276;2023-09-18T07:58:02;8.20;;;2.83;;
9948;SDS011;5013;51.840;8.276;2023-09-18T08:00:28;9.73;;;2.58;;
9948;SDS011;5013;51.840;8.276;2023-09-18T08:02:54;7.25;;;2.47;;
9948;SDS011;5013;51.840;8.276;2023-09-18T08:05:25;6.10;;;2.33;;
9948;SDS011;5013;51.840;8.276;2023-09-18T08:07:53;9.55;;;2.55;;
9948;SDS011;5013;51.840;8.276;2023-09-18T08:10:24;7.95;;;2.78;;
9948;SDS011;5013;51.840;8.276;2023-09-18T08:12:50;7.10;;;2.42;;
9948;SDS011;5013;51.840;8.276;2023-09-18T08:15:18;7.13;;;2.42;;
9948;SDS011;5013;51.840;8.276;2023-09-18T08:17:46;6.15;;;2.40;;
9948;SDS011;5013;51.840;8.276;2023-09-18T08:20:14;9.52;;;2.60;;
9948;SDS011;5013;51.840;8.276;2023-09-18T08:22:40;5.20;;;2.28;;
9948;SDS011;5013;51.840;8.276;2023-09-18T08:25:07;5.20;;;2.17;;
9948;SDS011;5013;51.840;8.276;2023-09-18T08:27:36;4.47;;;2.58;;
9948;SDS011;5013;51.840;8.276;2023-09-18T08:30:05;6.10;;;2.23;;
9948;SDS011;5013;51.840;8.276;2023-09-18T08:32:31;12.55;;;2.75;;
9948;SDS011;5013;51.840;8.276;2023-09-18T08:34:58;5.32;;;2.53;;
9948;SDS011;5013;51.840;8.276;2023-09-18T08:37:26;5.50;;;2.63;;
9948;SDS011;5013;51.840;8.276;2023-09-18T08:39:52;5.67;;;2.73;;
9948;SDS011;5013;51.840;8.276;2023-09-18T08:42:17;8.33;;;2.43;;
9948;SDS011;5013;51.840;8.276;2023-09-18T08:44:45;7.28;;;2.50;;
9948;SDS011;5013;51.840;8.276;2023-09-18T08:47:16;7.40;;;2.53;;
9948;SDS011;5013;51.840;8.276;2023-09-18T08:49:43;5.45;;;2.22;;
9948;SDS011;5013;51.840;8.276;2023-09-18T08:52:14;3.47;;;2.23;;
9948;SDS011;5013;51.840;8.276;2023-09-18T08:54:40;8.80;;;2.60;;
9948;SDS011;5013;51.840;8.276;2023-09-18T08:57:08;5.60;;;2.15;;
9948;SDS011;5013;51.840;8.276;2023-09-18T08:59:34;6.53;;;2.55;;
9948;SDS011;5013;51.840;8.276;2023-09-18T09:02:01;5.18;;;2.42;;
9948;SDS011;5013;51.840;8.276;2023-09-18T09:04:27;3.65;;;2.35;;
9948;SDS011;5013;51.840;8.276;2023-09-18T09:06:53;5.97;;;2.50;;
9948;SDS011;5013;51.840;8.276;2023-09-18T09:09:22;7.78;;;2.67;;
9948;SDS011;5013;51.840;8.276;2023-09-18T09:11:51;4.15;;;2.20;;
9948;SDS011;5013;51.840;8.276;2023-09-18T09:14:17;5.25;;;2.65;;
9948;SDS011;5013;51.840;8.276;2023-09-18T09:16:46;5.57;;;2.58;;
9948;SDS011;5013;51.840;8.276;2023-09-18T09:19:13;4.57;;;2.60;;
9948;SDS011;5013;51.840;8.276;2023-09-18T09:21:55;7.95;;;2.50;;
9948;SDS011;5013;51.840;8.276;2023-09-18T09:24:35;8.48;;;2.70;;
9948;SDS011;5013;51.840;8.276;2023-09-18T09:27:02;7.32;;;2.63;;
9948;SDS011;5013;51.840;8.276;2023-09-18T09:29:28;8.95;;;3.03;;
9948;SDS011;5013;51.840;8.276;2023-09-18T09:31:54;5.55;;;2.53;;
9948;SDS011;5013;51.840;8.276;2023-09-18T09:34:27;7.25;;;2.42;;
9948;SDS011;5013;51.840;8.276;2023-09-18T09:36:54;5.22;;;2.20;;
9948;SDS011;5013;51.840;8.276;2023-09-18T09:39:21;5.70;;;2.77;;
9948;SDS011;5013;51.840;8.276;2023-09-18T09:41:50;5.35;;;2.03;;
9948;SDS011;5013;51.840;8.276;2023-09-18T09:44:18;3.72;;;2.50;;
9948;SDS011;5013;51.840;8.276;2023-09-18T09:46:46;7.65;;;2.53;;
9948;SDS011;5013;51.840;8.276;2023-09-18T09:49:13;10.55;;;2.40;;
9948;SDS011;5013;51.840;8.276;2023-09-18T09:51:40;7.10;;;2.17;;
9948;SDS011;5013;51.840;8.276;2023-09-18T09:54:07;7.30;;;2.40;;
9948;SDS011;5013;51.840;8.276;2023-09-18T09:56:39;6.80;;;2.88;;
9948;SDS011;5013;51.840;8.276;2023-09-18T09:59:05;4.80;;;2.30;;
9948;SDS011;5013;51.840;8.276;2023-09-18T10:01:34;7.43;;;2.00;;
9948;SDS011;5013;51.840;8.276;2023-09-18T10:04:08;3.75;;;2.38;;
9948;SDS011;5013;51.840;8.276;2023-09-18T10:06:36;4.40;;;2.13;;
9948;SDS011;5013;51.840;8.276;2023-09-18T10:09:03;2.72;;;2.17;;
9948;SDS011;5013;51.840;8.276;2023-09-18T10:11:31;4.18;;;2.20;;
9948;SDS011;5013;51.840;8.276;2023-09-18T10:14:09;3.10;;;2.20;;
9948;SDS011;5013;51.840;8.276;2023-09-18T10:16:41;6.78;;;2.25;;
9948;SDS011;5013;51.840;8.276;2023-09-18T10:22:41;5.70;;;2.13;;
9948;SDS011;5013;51.840;8.276;2023-09-18T10:25:15;5.68;;;1.90;;
9948;SDS011;5013;51.840;8.276;2023-09-18T10:27:45;2.67;;;1.83;;
9948;SDS011;5013;51.840;8.276;2023-09-18T10:30:14;8.18;;;2.20;;
9948;SDS011;5013;51.840;8.276;2023-09-18T10:32:43;4.57;;;2.08;;
9948;SDS011;5013;51.840;8.276;2023-09-18T10:35:13;5.43;;;1.85;;
9948;SDS011;5013;51.840;8.276;2023-09-18T10:37:41;5.43;;;2.42;;
9948;SDS011;5013;51.840;8.276;2023-09-18T10:40:10;2.75;;;1.90;;
9948;SDS011;5013;51.840;8.276;2023-09-18T10:42:37;2.05;;;1.83;;
9948;SDS011;5013;51.840;8.276;2023-09-18T10:45:04;4.15;;;2.00;;
9948;SDS011;5013;51.840;8.276;2023-09-18T10:47:32;5.18;;;2.05;;
9948;SDS011;5013;51.840;8.276;2023-09-18T10:49:59;3.08;;;1.88;;
9948;SDS011;5013;51.840;8.276;2023-09-18T10:52:26;7.45;;;1.98;;
9948;SDS011;5013;51.840;8.276;2023-09-18T10:54:51;3.95;;;1.90;;
9948;SDS011;5013;51.840;8.276;2023-09-18T10:57:17;1.90;;;1.80;;
9948;SDS011;5013;51.840;8.276;2023-09-18T10:59:44;2.28;;;1.75;;
9948;SDS011;5013;51.840;8.276;2023-09-18T11:02:10;4.35;;;2.08;;
9948;SDS011;5013;51.840;8.276;2023-09-18T11:04:41;3.85;;;1.80;;
9948;SDS011;5013;51.840;8.276;2023-09-18T11:07:07;2.22;;;1.80;;
9948;SDS011;5013;51.840;8.276;2023-09-18T11:09:41;3.38;;;1.48;;
9948;SDS011;5013;51.840;8.276;2023-09-18T11:12:09;2.30;;;1.90;;
9948;SDS011;5013;51.840;8.276;2023-09-18T11:17:28;6.78;;;1.88;;
9948;SDS011;5013;51.840;8.276;2023-09-18T11:20:04;2.55;;;2.00;;
9948;SDS011;5013;51.840;8.276;2023-09-18T11:22:39;4.90;;;2.13;;
9948;SDS011;5013;51.840;8.276;2023-09-18T11:28:13;3.20;;;2.35;;
9948;SDS011;5013;51.840;8.276;2023-09-18T11:30:50;3.65;;;1.52;;
9948;SDS011;5013;51.840;8.276;2023-09-18T11:33:40;2.25;;;1.95;;
9948;SDS011;5013;51.840;8.276;2023-09-18T11:36:11;2.95;;;1.80;;
9948;SDS011;5013;51.840;8.276;2023-09-18T11:38:58;1.95;;;1.80;;
9948;SDS011;5013;51.840;8.276;2023-09-18T11:41:32;2.95;;;1.90;;
9948;SDS011;5013;51.840;8.276;2023-09-18T11:46:35;7.20;;;1.85;;
9948;SDS011;5013;51.840;8.276;2023-09-18T11:49:05;2.42;;;1.80;;
9948;SDS011;5013;51.840;8.276;2023-09-18T11:51:35;8.00;;;1.98;;
9948;SDS011;5013;51.840;8.276;2023-09-18T11:54:01;7.63;;;2.08;;
9948;SDS011;5013;51.840;8.276;2023-09-18T11:56:28;1.73;;;1.63;;
9948;SDS011;5013;51.840;8.276;2023-09-18T11:58:55;1.70;;;1.60;;
9948;SDS011;5013;51.840;8.276;2023-09-18T12:01:21;2.20;;;2.00;;
9948;SDS011;5013;51.840;8.276;2023-09-18T12:03:54;2.47;;;1.50;;
9948;SDS011;5013;51.840;8.276;2023-09-18T12:06:20;1.50;;;1.50;;
9948;SDS011;5013;51.840;8.276;2023-09-18T12:08:46;1.83;;;1.50;;
9948;SDS011;5013;51.840;8.276;2023-09-18T12:11:13;2.47;;;1.60;;
9948;SDS011;5013;51.840;8.276;2023-09-18T12:13:42;4.38;;;1.95;;
9948;SDS011;5013;51.840;8.276;2023-09-18T12:16:08;3.90;;;1.42;;
9948;SDS011;5013;51.840;8.276;2023-09-18T12:18:34;1.73;;;1.33;;
9948;SDS011;5013;51.840;8.276;2023-09-18T12:21:05;2.05;;;1.50;;
9948;SDS011;5013;51.840;8.276;2023-09-18T12:23:40;3.45;;;1.40;;
9948;SDS011;5013;51.840;8.276;2023-09-18T12:26:10;2.53;;;1.70;;
9948;SDS011;5013;51.840;8.276;2023-09-18T12:28:38;4.07;;;1.65;;
9948;SDS011;5013;51.840;8.276;2023-09-18T12:31:13;2.90;;;1.80;;
9948;SDS011;5013;51.840;8.276;2023-09-18T12:33:41;1.65;;;1.45;;
9948;SDS011;5013;51.840;8.276;2023-09-18T12:36:08;2.88;;;1.60;;
9948;SDS011;5013;51.840;8.276;2023-09-18T12:38:36;5.00;;;1.85;;
9948;SDS011;5013;51.840;8.276;2023-09-18T12:41:24;1.95;;;1.60;;
9948;SDS011;5013;51.840;8.276;2023-09-18T12:43:50;2.65;;;1.90;;
9948;SDS011;5013;51.840;8.276;2023-09-18T12:46:17;1.77;;;1.67;;
9948;SDS011;5013;51.840;8.276;2023-09-18T12:48:44;4.15;;;1.90;;
9948;SDS011;5013;51.840;8.276;2023-09-18T12:51:11;1.63;;;1.52;;
9948;SDS011;5013;51.840;8.276;2023-09-18T12:53:38;2.75;;;1.70;;
9948;SDS011;5013;51.840;8.276;2023-09-18T12:56:05;3.20;;;1.60;;
9948;SDS011;5013;51.840;8.276;2023-09-18T12:58:35;2.75;;;2.20;;
9948;SDS011;5013;51.840;8.276;2023-09-18T13:01:04;4.80;;;1.90;;
9948;SDS011;5013;51.840;8.276;2023-09-18T13:03:33;2.75;;;1.88;;
9948;SDS011;5013;51.840;8.276;2023-09-18T13:06:17;2.65;;;1.67;;
9948;SDS011;5013;51.840;8.276;2023-09-18T13:08:43;1.75;;;1.60;;
9948;SDS011;5013;51.840;8.276;2023-09-18T13:11:09;1.98;;;1.88;;
9948;SDS011;5013;51.840;8.276;2023-09-18T13:13:41;2.75;;;1.55;;
9948;SDS011;5013;51.840;8.276;2023-09-18T13:16:08;3.08;;;1.60;;
9948;SDS011;5013;51.840;8.276;2023-09-18T13:18:35;6.07;;;1.70;;
9948;SDS011;5013;51.840;8.276;2023-09-18T13:21:08;3.20;;;1.80;;
9948;SDS011;5013;51.840;8.276;2023-09-18T13:23:35;3.40;;;1.80;;
9948;SDS011;5013;51.840;8.276;2023-09-18T13:26:01;4.20;;;1.80;;
9948;SDS011;5013;51.840;8.276;2023-09-18T13:28:29;3.63;;;1.90;;
9948;SDS011;5013;51.840;8.276;2023-09-18T13:30:59;1.70;;;1.60;;
9948;SDS011;5013;51.840;8.276;2023-09-18T13:33:26;4.07;;;1.80;;
9948;SDS011;5013;51.840;8.276;2023-09-18T13:35:52;3.00;;;1.70;;
9948;SDS011;5013;51.840;8.276;2023-09-18T13:38:18;2.88;;;1.70;;
9948;SDS011;5013;51.840;8.276;2023-09-18T13:40:45;4.43;;;1.50;;
9948;SDS011;5013;51.840;8.276;2023-09-18T13:43:11;2.08;;;1.42;;
9948;SDS011;5013;51.840;8.276;2023-09-18T13:45:40;2.42;;;1.65;;
9948;SDS011;5013;51.840;8.276;2023-09-18T13:48:07;2.58;;;1.80;;
9948;SDS011;5013;51.840;8.276;2023-09-18T13:50:33;3.05;;;1.70;;
9948;SDS011;5013;51.840;8.276;2023-09-18T13:53:00;1.88;;;1.60;;
9948;SDS011;5013;51.840;8.276;2023-09-18T13:55:26;5.07;;;1.55;;
9948;SDS011;5013;51.840;8.276;2023-09-18T13:57:52;2.95;;;1.95;;
9948;SDS011;5013;51.840;8.276;2023-09-18T14:00:17;2.47;;;1.88;;
9948;SDS011;5013;51.840;8.276;2023-09-18T14:02:43;7.28;;;2.25;;
9948;SDS011;5013;51.840;8.276;2023-09-18T14:05:09;4.53;;;1.63;;
9948;SDS011;5013;51.840;8.276;2023-09-18T14:07:36;5.55;;;1.65;;
9948;SDS011;5013;51.840;8.276;2023-09-18T14:10:08;2.72;;;1.83;;
9948;SDS011;5013;51.840;8.276;2023-09-18T14:12:36;2.97;;;1.70;;
9948;SDS011;5013;51.840;8.276;2023-09-18T14:15:03;5.25;;;1.85;;
9948;SDS011;5013;51.840;8.276;2023-09-18T14:17:30;6.43;;;2.47;;
9948;SDS011;5013;51.840;8.276;2023-09-18T14:19:55;8.90;;;2.92;;
9948;SDS011;5013;51.840;8.276;2023-09-18T14:22:21;6.25;;;2.63;;
9948;SDS011;5013;51.840;8.276;2023-09-18T14:24:47;4.53;;;2.58;;
9948;SDS011;5013;51.840;8.276;2023-09-18T14:27:13;2.10;;;1.88;;
9948;SDS011;5013;51.840;8.276;2023-09-18T14:29:39;6.03;;;2.80;;
9948;SDS011;5013;51.840;8.276;2023-09-18T14:32:05;8.88;;;3.78;;
9948;SDS011;5013;51.840;8.276;2023-09-18T14:34:33;14.35;;;3.40;;
9948;SDS011;5013;51.840;8.276;2023-09-18T14:37:00;8.80;;;2.92;;
9948;SDS011;5013;51.840;8.276;2023-09-18T14:39:28;7.35;;;2.75;;
9948;SDS011;5013;51.840;8.276;2023-09-18T14:41:55;13.20;;;3.47;;
9948;SDS011;5013;51.840;8.276;2023-09-18T14:44:21;10.67;;;3.47;;
9948;SDS011;5013;51.840;8.276;2023-09-18T14:46:46;7.72;;;3.50;;
9948;SDS011;5013;51.840;8.276;2023-09-18T14:49:12;9.07;;;3.65;;
9948;SDS011;5013;51.840;8.276;2023-09-18T14:51:37;7.03;;;2.80;;
9948;SDS011;5013;51.840;8.276;2023-09-18T14:54:03;8.70;;;2.90;;
9948;SDS011;5013;51.840;8.276;2023-09-18T14:56:29;7.30;;;3.00;;
9948;SDS011;5013;51.840;8.276;2023-09-18T14:58:55;7.40;;;2.50;;
9948;SDS011;5013;51.840;8.276;2023-09-18T15:01:24;5.45;;;2.47;;
9948;SDS011;5013;51.840;8.276;2023-09-18T15:03:49;3.20;;;2.33;;
9948;SDS011;5013;51.840;8.276;2023-09-18T15:06:15;5.93;;;2.22;;
9948;SDS011;5013;51.840;8.276;2023-09-18T15:08:41;7.40;;;1.90;;
9948;SDS011;5013;51.840;8.276;2023-09-18T15:11:07;1.80;;;1.40;;
9948;SDS011;5013;51.840;8.276;2023-09-18T15:13:33;2.70;;;1.90;;
9948;SDS011;5013;51.840;8.276;2023-09-18T15:16:00;1.90;;;1.80;;
9948;SDS011;5013;51.840;8.276;2023-09-18T15:18:27;1.58;;;1.48;;
9948;SDS011;5013;51.840;8.276;2023-09-18T15:20:52;3.33;;;1.90;;
9948;SDS011;5013;51.840;8.276;2023-09-18T15:23:22;4.45;;;1.98;;
9948;SDS011;5013;51.840;8.276;2023-09-18T15:25:49;5.03;;;1.95;;
9948;SDS011;5013;51.840;8.276;2023-09-18T15:28:16;1.92;;;1.83;;